sensor_id;sensor_type;location;lat;lon;timestamp;temperature;humidity
7900;DHT22;3995;50.856;4.404;2023-02-08T00:01:49;8.20;45.70
7900;DHT22;3995;50.856;4.404;2023-02-08T00:04:16;8.20;45.60
7900;DHT22;3995;50.856;4.404;2023-02-08T00:06:44;8.20;45.70
7900;DHT22;3995;50.856;4.404;2023-02-08T00:09:11;8.20;45.70
7900;DHT22;3995;50.856;4.404;2023-02-08T00:11:40;8.20;45.80
7900;DHT22;3995;50.856;4.404;2023-02-08T00:14:07;8.20;45.80
7900;DHT22;3995;50.856;4.404;2023-02-08T00:16:34;8.10;45.80
7900;DHT22;3995;50.856;4.404;2023-02-08T00:19:01;8.10;45.80
7900;DHT22;3995;50.856;4.404;2023-02-08T00:21:29;8.10;45.80
7900;DHT22;3995;50.856;4.404;2023-02-08T00:23:56;8.10;45.80
7900;DHT22;3995;50.856;4.404;2023-02-08T00:26:23;8.10;45.90
7900;DHT22;3995;50.856;4.404;2023-02-08T00:28:51;8.10;45.80
7900;DHT22;3995;50.856;4.404;2023-02-08T00:31:19;8.20;45.80
7900;DHT22;3995;50.856;4.404;2023-02-08T00:33:46;8.20;45.60
7900;DHT22;3995;50.856;4.404;2023-02-08T00:36:13;8.30;45.60
7900;DHT22;3995;50.856;4.404;2023-02-08T00:38:40;8.30;45.60
7900;DHT22;3995;50.856;4.404;2023-02-08T00:41:07;8.20;45.50
7900;DHT22;3995;50.856;4.404;2023-02-08T00:43:34;8.20;45.70
7900;DHT22;3995;50.856;4.404;2023-02-08T00:46:03;8.20;45.70
7900;DHT22;3995;50.856;4.404;2023-02-08T00:48:32;8.20;45.70
7900;DHT22;3995;50.856;4.404;2023-02-08T00:51:03;8.10;45.70
7900;DHT22;3995;50.856;4.404;2023-02-08T00:53:34;8.20;45.80
7900;DHT22;3995;50.856;4.404;2023-02-08T00:56:01;8.10;45.80
7900;DHT22;3995;50.856;4.404;2023-02-08T00:58:29;8.10;45.80
7900;DHT22;3995;50.856;4.404;2023-02-08T01:00:56;8.10;45.80
7900;DHT22;3995;50.856;4.404;2023-02-08T01:03:24;8.10;46.00
7900;DHT22;3995;50.856;4.404;2023-02-08T01:05:51;8.10;46.00
7900;DHT22;3995;50.856;4.404;2023-02-08T01:08:19;8.00;45.90
7900;DHT22;3995;50.856;4.404;2023-02-08T01:10:47;8.00;46.60
7900;DHT22;3995;50.856;4.404;2023-02-08T01:13:14;8.00;46.00
7900;DHT22;3995;50.856;4.404;2023-02-08T01:15:41;8.00;46.60
7900;DHT22;3995;50.856;4.404;2023-02-08T01:18:09;7.90;46.00
7900;DHT22;3995;50.856;4.404;2023-02-08T01:20:37;7.90;46.10
7900;DHT22;3995;50.856;4.404;2023-02-08T01:23:04;7.90;46.10
7900;DHT22;3995;50.856;4.404;2023-02-08T01:25:31;7.90;46.10
7900;DHT22;3995;50.856;4.404;2023-02-08T01:27:59;7.90;46.10
7900;DHT22;3995;50.856;4.404;2023-02-08T01:30:26;7.90;46.10
7900;DHT22;3995;50.856;4.404;2023-02-08T01:32:54;7.90;46.10
7900;DHT22;3995;50.856;4.404;2023-02-08T01:35:34;7.90;46.10
7900;DHT22;3995;50.856;4.404;2023-02-08T01:38:03;7.90;46.10
7900;DHT22;3995;50.856;4.404;2023-02-08T01:40:30;7.80;46.00
7900;DHT22;3995;50.856;4.404;2023-02-08T01:42:57;7.80;46.00
7900;DHT22;3995;50.856;4.404;2023-02-08T01:45:27;7.80;46.10
7900;DHT22;3995;50.856;4.404;2023-02-08T01:48:03;7.80;46.20
7900;DHT22;3995;50.856;4.404;2023-02-08T01:50:38;7.80;46.20
7900;DHT22;3995;50.856;4.404;2023-02-08T01:53:08;7.80;46.20
7900;DHT22;3995;50.856;4.404;2023-02-08T01:55:37;7.80;46.20
7900;DHT22;3995;50.856;4.404;2023-02-08T01:58:09;7.80;46.10
7900;DHT22;3995;50.856;4.404;2023-02-08T02:00:38;7.80;46.20
7900;DHT22;3995;50.856;4.404;2023-02-08T02:03:06;7.70;46.20
7900;DHT22;3995;50.856;4.404;2023-02-08T02:05:37;7.70;46.20
7900;DHT22;3995;50.856;4.404;2023-02-08T02:08:05;7.70;46.20
7900;DHT22;3995;50.856;4.404;2023-02-08T02:10:36;7.70;46.20
7900;DHT22;3995;50.856;4.404;2023-02-08T02:13:06;7.70;46.30
7900;DHT22;3995;50.856;4.404;2023-02-08T02:15:33;7.70;46.30
7900;DHT22;3995;50.856;4.404;2023-02-08T02:18:02;7.70;46.30
7900;DHT22;3995;50.856;4.404;2023-02-08T02:20:43;7.70;46.30
7900;DHT22;3995;50.856;4.404;2023-02-08T02:29:45;7.70;46.50
7900;DHT22;3995;50.856;4.404;2023-02-08T02:32:30;7.60;46.50
7900;DHT22;3995;50.856;4.404;2023-02-08T02:35:02;7.60;46.60
7900;DHT22;3995;50.856;4.404;2023-02-08T02:37:44;7.60;46.60
7900;DHT22;3995;50.856;4.404;2023-02-08T02:40:18;7.60;46.60
7900;DHT22;3995;50.856;4.404;2023-02-08T02:42:57;7.60;46.70
7900;DHT22;3995;50.856;4.404;2023-02-08T02:45:48;7.60;46.70
7900;DHT22;3995;50.856;4.404;2023-02-08T02:48:25;7.50;46.80
7900;DHT22;3995;50.856;4.404;2023-02-08T02:50:59;7.50;46.80
7900;DHT22;3995;50.856;4.404;2023-02-08T02:53:33;7.50;46.80
7900;DHT22;3995;50.856;4.404;2023-02-08T02:56:05;7.50;46.70
7900;DHT22;3995;50.856;4.404;2023-02-08T02:58:35;7.50;46.60
7900;DHT22;3995;50.856;4.404;2023-02-08T03:01:04;7.50;46.60
7900;DHT22;3995;50.856;4.404;2023-02-08T03:03:33;7.50;46.70
7900;DHT22;3995;50.856;4.404;2023-02-08T03:06:03;7.50;46.70
7900;DHT22;3995;50.856;4.404;2023-02-08T03:08:53;7.50;47.40
7900;DHT22;3995;50.856;4.404;2023-02-08T03:11:25;7.60;46.90
7900;DHT22;3995;50.856;4.404;2023-02-08T03:14:10;7.50;46.80
7900;DHT22;3995;50.856;4.404;2023-02-08T03:16:54;7.50;46.70
7900;DHT22;3995;50.856;4.404;2023-02-08T03:19:31;7.50;46.80
7900;DHT22;3995;50.856;4.404;2023-02-08T03:22:05;7.40;46.90
7900;DHT22;3995;50.856;4.404;2023-02-08T03:24:42;7.40;46.90
7900;DHT22;3995;50.856;4.404;2023-02-08T03:27:17;7.40;46.90
7900;DHT22;3995;50.856;4.404;2023-02-08T03:29:53;7.40;46.90
7900;DHT22;3995;50.856;4.404;2023-02-08T03:32:24;7.40;47.00
7900;DHT22;3995;50.856;4.404;2023-02-08T03:34:58;7.40;47.00
7900;DHT22;3995;50.856;4.404;2023-02-08T03:37:31;7.40;46.90
7900;DHT22;3995;50.856;4.404;2023-02-08T03:40:05;7.40;46.90
7900;DHT22;3995;50.856;4.404;2023-02-08T03:42:34;7.40;46.90
7900;DHT22;3995;50.856;4.404;2023-02-08T03:45:06;7.30;46.90
7900;DHT22;3995;50.856;4.404;2023-02-08T03:47:38;7.40;47.00
7900;DHT22;3995;50.856;4.404;2023-02-08T03:50:10;7.30;47.00
7900;DHT22;3995;50.856;4.404;2023-02-08T03:52:38;7.30;47.00
7900;DHT22;3995;50.856;4.404;2023-02-08T03:55:09;7.30;47.10
7900;DHT22;3995;50.856;4.404;2023-02-08T03:57:42;7.30;47.10
7900;DHT22;3995;50.856;4.404;2023-02-08T04:00:14;7.30;47.00
7900;DHT22;3995;50.856;4.404;2023-02-08T04:02:46;7.30;47.10
7900;DHT22;3995;50.856;4.404;2023-02-08T04:05:17;7.30;47.10
7900;DHT22;3995;50.856;4.404;2023-02-08T04:07:44;7.30;47.10
7900;DHT22;3995;50.856;4.404;2023-02-08T04:10:11;7.20;47.00
7900;DHT22;3995;50.856;4.404;2023-02-08T04:12:39;7.20;47.00
7900;DHT22;3995;50.856;4.404;2023-02-08T04:15:07;7.20;47.00
7900;DHT22;3995;50.856;4.404;2023-02-08T04:17:35;7.20;47.00
7900;DHT22;3995;50.856;4.404;2023-02-08T04:20:02;7.20;47.00
7900;DHT22;3995;50.856;4.404;2023-02-08T04:22:31;7.20;47.00
7900;DHT22;3995;50.856;4.404;2023-02-08T04:24:59;7.20;46.90
7900;DHT22;3995;50.856;4.404;2023-02-08T04:27:26;7.20;46.80
7900;DHT22;3995;50.856;4.404;2023-02-08T04:29:53;7.20;46.90
7900;DHT22;3995;50.856;4.404;2023-02-08T04:32:20;7.20;46.90
7900;DHT22;3995;50.856;4.404;2023-02-08T04:34:47;7.20;46.90
7900;DHT22;3995;50.856;4.404;2023-02-08T04:37:15;7.20;46.80
7900;DHT22;3995;50.856;4.404;2023-02-08T04:39:43;7.20;46.80
7900;DHT22;3995;50.856;4.404;2023-02-08T04:42:10;7.20;46.90
7900;DHT22;3995;50.856;4.404;2023-02-08T04:44:37;7.20;47.00
7900;DHT22;3995;50.856;4.404;2023-02-08T04:47:04;7.10;46.80
7900;DHT22;3995;50.856;4.404;2023-02-08T04:49:31;7.10;46.90
7900;DHT22;3995;50.856;4.404;2023-02-08T04:51:58;7.10;47.00
7900;DHT22;3995;50.856;4.404;2023-02-08T04:54:26;7.10;46.90
7900;DHT22;3995;50.856;4.404;2023-02-08T04:56:55;7.10;46.90
7900;DHT22;3995;50.856;4.404;2023-02-08T04:59:22;7.20;47.00
7900;DHT22;3995;50.856;4.404;2023-02-08T05:01:49;7.10;46.80
7900;DHT22;3995;50.856;4.404;2023-02-08T05:04:16;7.10;46.90
7900;DHT22;3995;50.856;4.404;2023-02-08T05:06:43;7.10;46.80
7900;DHT22;3995;50.856;4.404;2023-02-08T05:09:11;7.10;46.80
7900;DHT22;3995;50.856;4.404;2023-02-08T05:11:39;7.20;46.90
7900;DHT22;3995;50.856;4.404;2023-02-08T05:14:08;7.20;46.70
7900;DHT22;3995;50.856;4.404;2023-02-08T05:16:35;7.20;46.70
7900;DHT22;3995;50.856;4.404;2023-02-08T05:19:02;7.20;46.70
7900;DHT22;3995;50.856;4.404;2023-02-08T05:21:29;7.20;46.60
7900;DHT22;3995;50.856;4.404;2023-02-08T05:23:56;7.20;46.60
7900;DHT22;3995;50.856;4.404;2023-02-08T05:26:24;7.20;46.50
7900;DHT22;3995;50.856;4.404;2023-02-08T05:28:51;7.20;46.50
7900;DHT22;3995;50.856;4.404;2023-02-08T05:31:21;7.20;46.50
7900;DHT22;3995;50.856;4.404;2023-02-08T05:33:49;7.20;46.60
7900;DHT22;3995;50.856;4.404;2023-02-08T05:36:17;7.20;46.60
7900;DHT22;3995;50.856;4.404;2023-02-08T05:38:44;7.20;46.80
7900;DHT22;3995;50.856;4.404;2023-02-08T05:41:11;7.20;46.80
7900;DHT22;3995;50.856;4.404;2023-02-08T05:43:38;7.20;46.60
7900;DHT22;3995;50.856;4.404;2023-02-08T05:46:06;7.20;46.40
7900;DHT22;3995;50.856;4.404;2023-02-08T05:48:35;7.20;46.40
7900;DHT22;3995;50.856;4.404;2023-02-08T05:51:02;7.30;46.50
7900;DHT22;3995;50.856;4.404;2023-02-08T05:53:30;7.20;46.40
7900;DHT22;3995;50.856;4.404;2023-02-08T05:55:57;7.20;46.40
7900;DHT22;3995;50.856;4.404;2023-02-08T05:58:25;7.20;46.40
7900;DHT22;3995;50.856;4.404;2023-02-08T06:00:53;7.20;46.50
7900;DHT22;3995;50.856;4.404;2023-02-08T06:03:21;7.20;46.40
7900;DHT22;3995;50.856;4.404;2023-02-08T06:05:50;7.20;46.50
7900;DHT22;3995;50.856;4.404;2023-02-08T06:08:17;7.20;46.50
7900;DHT22;3995;50.856;4.404;2023-02-08T06:10:47;7.20;46.40
7900;DHT22;3995;50.856;4.404;2023-02-08T06:13:14;7.20;46.20
7900;DHT22;3995;50.856;4.404;2023-02-08T06:15:42;7.20;46.10
7900;DHT22;3995;50.856;4.404;2023-02-08T06:18:10;7.20;46.00
7900;DHT22;3995;50.856;4.404;2023-02-08T06:20:37;7.30;46.10
7900;DHT22;3995;50.856;4.404;2023-02-08T06:23:06;7.30;46.00
7900;DHT22;3995;50.856;4.404;2023-02-08T06:25:34;7.30;46.00
7900;DHT22;3995;50.856;4.404;2023-02-08T06:28:01;7.20;46.00
7900;DHT22;3995;50.856;4.404;2023-02-08T06:30:28;7.30;45.90
7900;DHT22;3995;50.856;4.404;2023-02-08T06:32:56;7.20;45.80
7900;DHT22;3995;50.856;4.404;2023-02-08T06:35:23;7.30;45.80
7900;DHT22;3995;50.856;4.404;2023-02-08T06:37:50;7.30;45.80
7900;DHT22;3995;50.856;4.404;2023-02-08T06:40:20;7.30;45.80
7900;DHT22;3995;50.856;4.404;2023-02-08T06:42:47;7.30;45.80
7900;DHT22;3995;50.856;4.404;2023-02-08T06:45:15;7.30;45.70
7900;DHT22;3995;50.856;4.404;2023-02-08T06:47:42;7.30;45.70
7900;DHT22;3995;50.856;4.404;2023-02-08T06:50:10;7.20;45.70
7900;DHT22;3995;50.856;4.404;2023-02-08T06:52:37;7.30;45.80
7900;DHT22;3995;50.856;4.404;2023-02-08T06:55:05;7.30;45.70
7900;DHT22;3995;50.856;4.404;2023-02-08T06:57:33;7.30;45.70
7900;DHT22;3995;50.856;4.404;2023-02-08T07:00:00;7.30;45.80
7900;DHT22;3995;50.856;4.404;2023-02-08T07:02:28;7.20;45.80
7900;DHT22;3995;50.856;4.404;2023-02-08T07:04:55;7.30;45.80
7900;DHT22;3995;50.856;4.404;2023-02-08T07:07:23;7.30;45.80
7900;DHT22;3995;50.856;4.404;2023-02-08T07:09:50;7.30;45.80
7900;DHT22;3995;50.856;4.404;2023-02-08T07:12:17;7.30;45.80
7900;DHT22;3995;50.856;4.404;2023-02-08T07:14:46;7.20;45.80
7900;DHT22;3995;50.856;4.404;2023-02-08T07:17:13;7.30;45.80
7900;DHT22;3995;50.856;4.404;2023-02-08T07:19:40;7.20;45.70
7900;DHT22;3995;50.856;4.404;2023-02-08T07:22:07;7.20;45.70
7900;DHT22;3995;50.856;4.404;2023-02-08T07:24:35;7.20;45.60
7900;DHT22;3995;50.856;4.404;2023-02-08T07:27:08;7.20;45.60
7900;DHT22;3995;50.856;4.404;2023-02-08T07:29:35;7.30;45.50
7900;DHT22;3995;50.856;4.404;2023-02-08T07:32:06;7.20;45.50
7900;DHT22;3995;50.856;4.404;2023-02-08T07:34:36;7.20;45.40
7900;DHT22;3995;50.856;4.404;2023-02-08T07:37:05;7.20;45.20
7900;DHT22;3995;50.856;4.404;2023-02-08T07:39:32;7.20;45.10
7900;DHT22;3995;50.856;4.404;2023-02-08T07:41:59;7.20;44.80
7900;DHT22;3995;50.856;4.404;2023-02-08T07:44:26;7.20;44.60
7900;DHT22;3995;50.856;4.404;2023-02-08T07:46:54;7.20;44.40
7900;DHT22;3995;50.856;4.404;2023-02-08T07:49:23;7.20;44.30
7900;DHT22;3995;50.856;4.404;2023-02-08T07:51:50;7.20;44.10
7900;DHT22;3995;50.856;4.404;2023-02-08T07:54:17;7.20;43.90
7900;DHT22;3995;50.856;4.404;2023-02-08T07:56:44;7.20;43.70
7900;DHT22;3995;50.856;4.404;2023-02-08T07:59:12;7.30;43.70
7900;DHT22;3995;50.856;4.404;2023-02-08T08:01:39;7.30;43.70
7900;DHT22;3995;50.856;4.404;2023-02-08T08:04:06;7.30;43.60
7900;DHT22;3995;50.856;4.404;2023-02-08T08:06:35;7.30;43.40
7900;DHT22;3995;50.856;4.404;2023-02-08T08:09:03;7.30;43.30
7900;DHT22;3995;50.856;4.404;2023-02-08T08:11:30;7.30;43.20
7900;DHT22;3995;50.856;4.404;2023-02-08T08:13:57;7.30;43.20
7900;DHT22;3995;50.856;4.404;2023-02-08T08:16:25;7.40;43.10
7900;DHT22;3995;50.856;4.404;2023-02-08T08:18:52;7.40;43.00
7900;DHT22;3995;50.856;4.404;2023-02-08T08:21:19;7.40;43.10
7900;DHT22;3995;50.856;4.404;2023-02-08T08:23:48;7.40;43.00
7900;DHT22;3995;50.856;4.404;2023-02-08T08:26:18;7.40;42.60
7900;DHT22;3995;50.856;4.404;2023-02-08T08:28:47;7.50;42.50
7900;DHT22;3995;50.856;4.404;2023-02-08T08:31:16;7.50;42.40
7900;DHT22;3995;50.856;4.404;2023-02-08T08:33:44;7.50;42.30
7900;DHT22;3995;50.856;4.404;2023-02-08T08:36:11;7.50;41.90
7900;DHT22;3995;50.856;4.404;2023-02-08T08:38:39;7.40;41.80
7900;DHT22;3995;50.856;4.404;2023-02-08T08:41:09;7.50;41.80
7900;DHT22;3995;50.856;4.404;2023-02-08T08:43:36;7.50;41.60
7900;DHT22;3995;50.856;4.404;2023-02-08T08:46:04;7.50;41.50
7900;DHT22;3995;50.856;4.404;2023-02-08T08:48:32;7.50;41.40
7900;DHT22;3995;50.856;4.404;2023-02-08T08:50:59;7.50;41.40
7900;DHT22;3995;50.856;4.404;2023-02-08T08:53:26;7.50;41.20
7900;DHT22;3995;50.856;4.404;2023-02-08T08:55:54;7.50;40.90
7900;DHT22;3995;50.856;4.404;2023-02-08T08:58:39;7.60;40.80
7900;DHT22;3995;50.856;4.404;2023-02-08T09:01:17;7.60;40.50
7900;DHT22;3995;50.856;4.404;2023-02-08T09:03:44;7.70;40.50
7900;DHT22;3995;50.856;4.404;2023-02-08T09:06:11;7.60;40.60
7900;DHT22;3995;50.856;4.404;2023-02-08T09:08:38;7.70;40.50
7900;DHT22;3995;50.856;4.404;2023-02-08T09:11:06;7.70;40.20
7900;DHT22;3995;50.856;4.404;2023-02-08T09:13:34;7.70;39.80
7900;DHT22;3995;50.856;4.404;2023-02-08T09:16:06;7.80;39.60
7900;DHT22;3995;50.856;4.404;2023-02-08T09:18:33;7.90;39.20
7900;DHT22;3995;50.856;4.404;2023-02-08T09:21:04;7.90;39.20
7900;DHT22;3995;50.856;4.404;2023-02-08T09:23:31;8.00;39.30
7900;DHT22;3995;50.856;4.404;2023-02-08T09:26:01;8.00;39.10
7900;DHT22;3995;50.856;4.404;2023-02-08T09:28:28;8.10;38.80
7900;DHT22;3995;50.856;4.404;2023-02-08T09:30:55;8.10;38.30
7900;DHT22;3995;50.856;4.404;2023-02-08T09:33:25;8.20;37.90
7900;DHT22;3995;50.856;4.404;2023-02-08T09:35:52;8.20;38.10
7900;DHT22;3995;50.856;4.404;2023-02-08T09:38:19;8.30;37.80
7900;DHT22;3995;50.856;4.404;2023-02-08T09:40:53;8.40;37.30
7900;DHT22;3995;50.856;4.404;2023-02-08T09:43:34;8.40;37.00
7900;DHT22;3995;50.856;4.404;2023-02-08T09:46:11;8.50;36.90
7900;DHT22;3995;50.856;4.404;2023-02-08T09:49:01;8.60;36.50
7900;DHT22;3995;50.856;4.404;2023-02-08T09:51:34;8.70;35.90
7900;DHT22;3995;50.856;4.404;2023-02-08T09:54:07;8.70;36.60
7900;DHT22;3995;50.856;4.404;2023-02-08T09:56:37;8.80;36.20
7900;DHT22;3995;50.856;4.404;2023-02-08T09:59:12;8.90;35.50
7900;DHT22;3995;50.856;4.404;2023-02-08T10:01:41;9.00;35.00
7900;DHT22;3995;50.856;4.404;2023-02-08T10:04:14;9.10;35.00
7900;DHT22;3995;50.856;4.404;2023-02-08T10:06:44;9.20;34.70
7900;DHT22;3995;50.856;4.404;2023-02-08T10:09:13;9.30;34.90
7900;DHT22;3995;50.856;4.404;2023-02-08T10:11:49;9.40;34.50
7900;DHT22;3995;50.856;4.404;2023-02-08T10:14:33;9.50;33.80
7900;DHT22;3995;50.856;4.404;2023-02-08T10:17:14;9.60;34.20
7900;DHT22;3995;50.856;4.404;2023-02-08T10:20:00;9.60;33.30
7900;DHT22;3995;50.856;4.404;2023-02-08T10:22:36;9.70;32.60
7900;DHT22;3995;50.856;4.404;2023-02-08T10:25:32;9.80;32.40
7900;DHT22;3995;50.856;4.404;2023-02-08T10:28:20;9.90;32.70
7900;DHT22;3995;50.856;4.404;2023-02-08T10:30:54;10.00;30.90
7900;DHT22;3995;50.856;4.404;2023-02-08T10:33:26;10.10;31.00
7900;DHT22;3995;50.856;4.404;2023-02-08T10:35:59;10.20;30.90
7900;DHT22;3995;50.856;4.404;2023-02-08T10:38:28;10.30;30.40
7900;DHT22;3995;50.856;4.404;2023-02-08T10:40:58;10.40;30.00
7900;DHT22;3995;50.856;4.404;2023-02-08T10:43:33;10.50;30.40
7900;DHT22;3995;50.856;4.404;2023-02-08T10:46:08;10.50;29.70
7900;DHT22;3995;50.856;4.404;2023-02-08T10:48:45;10.50;28.70
7900;DHT22;3995;50.856;4.404;2023-02-08T10:51:17;10.50;28.30
7900;DHT22;3995;50.856;4.404;2023-02-08T10:53:46;10.40;28.00
7900;DHT22;3995;50.856;4.404;2023-02-08T10:56:32;10.40;28.10
7900;DHT22;3995;50.856;4.404;2023-02-08T10:59:06;10.40;27.90
7900;DHT22;3995;50.856;4.404;2023-02-08T11:01:36;10.40;27.30
7900;DHT22;3995;50.856;4.404;2023-02-08T11:04:05;10.30;27.40
7900;DHT22;3995;50.856;4.404;2023-02-08T11:06:36;10.30;27.40
7900;DHT22;3995;50.856;4.404;2023-02-08T11:09:04;10.30;26.70
7900;DHT22;3995;50.856;4.404;2023-02-08T11:11:35;10.30;26.40
7900;DHT22;3995;50.856;4.404;2023-02-08T11:14:07;10.30;25.90
7900;DHT22;3995;50.856;4.404;2023-02-08T11:16:35;10.20;25.20
7900;DHT22;3995;50.856;4.404;2023-02-08T11:19:04;10.20;24.90
7900;DHT22;3995;50.856;4.404;2023-02-08T11:21:34;10.20;24.70
7900;DHT22;3995;50.856;4.404;2023-02-08T11:24:31;10.20;24.70
7900;DHT22;3995;50.856;4.404;2023-02-08T11:27:00;10.30;23.90
7900;DHT22;3995;50.856;4.404;2023-02-08T11:29:29;10.20;24.70
7900;DHT22;3995;50.856;4.404;2023-02-08T11:31:59;10.20;25.50
7900;DHT22;3995;50.856;4.404;2023-02-08T11:34:28;10.20;25.60
7900;DHT22;3995;50.856;4.404;2023-02-08T11:36:58;10.20;25.60
7900;DHT22;3995;50.856;4.404;2023-02-08T11:39:33;10.20;26.10
7900;DHT22;3995;50.856;4.404;2023-02-08T11:42:03;10.30;26.70
7900;DHT22;3995;50.856;4.404;2023-02-08T11:44:33;10.30;26.60
7900;DHT22;3995;50.856;4.404;2023-02-08T11:47:03;10.30;26.50
7900;DHT22;3995;50.856;4.404;2023-02-08T11:49:36;10.30;27.00
7900;DHT22;3995;50.856;4.404;2023-02-08T11:52:06;10.30;26.80
7900;DHT22;3995;50.856;4.404;2023-02-08T11:54:37;10.30;26.70
7900;DHT22;3995;50.856;4.404;2023-02-08T11:57:12;10.30;26.60
7900;DHT22;3995;50.856;4.404;2023-02-08T11:59:40;10.30;26.80
7900;DHT22;3995;50.856;4.404;2023-02-08T12:02:29;10.30;27.20
7900;DHT22;3995;50.856;4.404;2023-02-08T12:04:57;10.40;27.60
7900;DHT22;3995;50.856;4.404;2023-02-08T12:07:42;10.30;27.30
7900;DHT22;3995;50.856;4.404;2023-02-08T12:10:31;10.40;26.90
7900;DHT22;3995;50.856;4.404;2023-02-08T12:13:20;10.40;26.80
7900;DHT22;3995;50.856;4.404;2023-02-08T12:15:57;10.40;26.70
7900;DHT22;3995;50.856;4.404;2023-02-08T12:18:37;10.40;26.90
7900;DHT22;3995;50.856;4.404;2023-02-08T12:21:13;10.40;26.60
7900;DHT22;3995;50.856;4.404;2023-02-08T12:23:51;10.40;26.60
7900;DHT22;3995;50.856;4.404;2023-02-08T12:26:40;10.40;26.60
7900;DHT22;3995;50.856;4.404;2023-02-08T12:29:25;10.50;26.60
7900;DHT22;3995;50.856;4.404;2023-02-08T12:32:05;10.50;26.20
7900;DHT22;3995;50.856;4.404;2023-02-08T12:34:47;10.40;26.10
7900;DHT22;3995;50.856;4.404;2023-02-08T12:37:28;10.40;25.90
7900;DHT22;3995;50.856;4.404;2023-02-08T12:40:21;10.40;25.70
7900;DHT22;3995;50.856;4.404;2023-02-08T12:43:18;10.40;25.90
7900;DHT22;3995;50.856;4.404;2023-02-08T12:45:58;10.40;26.00
7900;DHT22;3995;50.856;4.404;2023-02-08T12:48:39;10.50;25.90
7900;DHT22;3995;50.856;4.404;2023-02-08T12:51:17;10.50;25.90
7900;DHT22;3995;50.856;4.404;2023-02-08T12:53:50;10.50;26.60
7900;DHT22;3995;50.856;4.404;2023-02-08T12:56:36;10.50;25.90
7900;DHT22;3995;50.856;4.404;2023-02-08T12:59:10;10.50;25.60
7900;DHT22;3995;50.856;4.404;2023-02-08T13:01:45;10.50;25.60
7900;DHT22;3995;50.856;4.404;2023-02-08T13:04:19;10.50;25.80
7900;DHT22;3995;50.856;4.404;2023-02-08T13:06:54;10.60;26.00
7900;DHT22;3995;50.856;4.404;2023-02-08T13:09:32;10.60;26.30
7900;DHT22;3995;50.856;4.404;2023-02-08T13:12:05;10.60;26.40
7900;DHT22;3995;50.856;4.404;2023-02-08T13:14:42;10.60;26.30
7900;DHT22;3995;50.856;4.404;2023-02-08T13:17:16;10.70;26.20
7900;DHT22;3995;50.856;4.404;2023-02-08T13:19:53;10.70;26.30
7900;DHT22;3995;50.856;4.404;2023-02-08T13:22:25;10.70;26.20
7900;DHT22;3995;50.856;4.404;2023-02-08T13:24:56;10.70;26.50
7900;DHT22;3995;50.856;4.404;2023-02-08T13:27:29;10.70;25.90
7900;DHT22;3995;50.856;4.404;2023-02-08T13:30:00;10.70;26.00
7900;DHT22;3995;50.856;4.404;2023-02-08T13:32:32;10.70;25.80
7900;DHT22;3995;50.856;4.404;2023-02-08T13:35:10;10.70;25.80
7900;DHT22;3995;50.856;4.404;2023-02-08T13:37:49;10.80;26.00
7900;DHT22;3995;50.856;4.404;2023-02-08T13:40:21;10.80;26.70
7900;DHT22;3995;50.856;4.404;2023-02-08T13:42:57;10.80;26.90
7900;DHT22;3995;50.856;4.404;2023-02-08T13:45:29;10.90;27.00
7900;DHT22;3995;50.856;4.404;2023-02-08T13:48:03;10.90;26.80
7900;DHT22;3995;50.856;4.404;2023-02-08T13:50:46;10.90;26.70
7900;DHT22;3995;50.856;4.404;2023-02-08T13:53:16;10.90;26.70
7900;DHT22;3995;50.856;4.404;2023-02-08T13:56:02;10.90;26.80
7900;DHT22;3995;50.856;4.404;2023-02-08T14:01:31;10.90;27.10
7900;DHT22;3995;50.856;4.404;2023-02-08T14:04:26;10.90;27.10
7900;DHT22;3995;50.856;4.404;2023-02-08T14:07:03;11.00;27.20
7900;DHT22;3995;50.856;4.404;2023-02-08T14:09:45;10.90;27.40
7900;DHT22;3995;50.856;4.404;2023-02-08T14:12:20;11.00;27.50
7900;DHT22;3995;50.856;4.404;2023-02-08T14:17:54;11.10;27.60
7900;DHT22;3995;50.856;4.404;2023-02-08T14:20:28;11.00;27.50
7900;DHT22;3995;50.856;4.404;2023-02-08T14:22:59;11.00;27.50
7900;DHT22;3995;50.856;4.404;2023-02-08T14:25:39;11.00;27.50
7900;DHT22;3995;50.856;4.404;2023-02-08T14:28:26;11.10;27.50
7900;DHT22;3995;50.856;4.404;2023-02-08T14:30:58;11.10;27.50
7900;DHT22;3995;50.856;4.404;2023-02-08T14:33:29;11.00;27.90
7900;DHT22;3995;50.856;4.404;2023-02-08T14:36:02;11.00;28.20
7900;DHT22;3995;50.856;4.404;2023-02-08T14:38:35;11.00;28.50
7900;DHT22;3995;50.856;4.404;2023-02-08T14:41:43;11.10;28.60
7900;DHT22;3995;50.856;4.404;2023-02-08T14:50:38;11.10;28.80
7900;DHT22;3995;50.856;4.404;2023-02-08T14:53:16;11.00;29.00
7900;DHT22;3995;50.856;4.404;2023-02-08T14:55:48;11.00;29.10
7900;DHT22;3995;50.856;4.404;2023-02-08T14:58:26;11.00;29.10
7900;DHT22;3995;50.856;4.404;2023-02-08T15:00:56;11.00;29.00
7900;DHT22;3995;50.856;4.404;2023-02-08T15:03:25;11.00;29.10
7900;DHT22;3995;50.856;4.404;2023-02-08T15:09:03;11.10;29.50
7900;DHT22;3995;50.856;4.404;2023-02-08T15:11:32;11.00;29.70
7900;DHT22;3995;50.856;4.404;2023-02-08T15:14:02;11.00;29.40
7900;DHT22;3995;50.856;4.404;2023-02-08T15:16:33;11.00;29.30
7900;DHT22;3995;50.856;4.404;2023-02-08T15:19:02;11.00;29.30
7900;DHT22;3995;50.856;4.404;2023-02-08T15:21:31;11.00;29.30
7900;DHT22;3995;50.856;4.404;2023-02-08T15:24:10;11.00;29.20
7900;DHT22;3995;50.856;4.404;2023-02-08T15:26:43;11.00;29.20
7900;DHT22;3995;50.856;4.404;2023-02-08T15:29:17;10.90;29.60
7900;DHT22;3995;50.856;4.404;2023-02-08T15:31:45;11.00;29.30
7900;DHT22;3995;50.856;4.404;2023-02-08T15:34:12;10.90;29.40
7900;DHT22;3995;50.856;4.404;2023-02-08T15:36:45;10.90;29.30
7900;DHT22;3995;50.856;4.404;2023-02-08T15:39:23;10.90;29.20
7900;DHT22;3995;50.856;4.404;2023-02-08T15:41:54;11.00;29.40
7900;DHT22;3995;50.856;4.404;2023-02-08T15:44:24;10.90;29.40
7900;DHT22;3995;50.856;4.404;2023-02-08T15:46:53;10.90;29.30
7900;DHT22;3995;50.856;4.404;2023-02-08T15:49:27;10.90;29.20
7900;DHT22;3995;50.856;4.404;2023-02-08T15:51:55;10.90;29.10
7900;DHT22;3995;50.856;4.404;2023-02-08T15:54:24;10.80;29.10
7900;DHT22;3995;50.856;4.404;2023-02-08T15:56:54;10.80;29.10
7900;DHT22;3995;50.856;4.404;2023-02-08T15:59:24;10.80;29.20
7900;DHT22;3995;50.856;4.404;2023-02-08T16:01:53;10.80;29.20
7900;DHT22;3995;50.856;4.404;2023-02-08T16:04:22;10.80;29.00
7900;DHT22;3995;50.856;4.404;2023-02-08T16:06:52;10.80;28.80
7900;DHT22;3995;50.856;4.404;2023-02-08T16:09:21;10.80;28.80
7900;DHT22;3995;50.856;4.404;2023-02-08T16:11:51;10.80;28.80
7900;DHT22;3995;50.856;4.404;2023-02-08T16:14:21;10.80;28.90
7900;DHT22;3995;50.856;4.404;2023-02-08T16:16:49;10.80;28.80
7900;DHT22;3995;50.856;4.404;2023-02-08T16:19:23;10.70;28.80
7900;DHT22;3995;50.856;4.404;2023-02-08T16:21:53;10.70;28.90
7900;DHT22;3995;50.856;4.404;2023-02-08T16:24:23;10.70;29.00
7900;DHT22;3995;50.856;4.404;2023-02-08T16:26:59;10.70;28.90
7900;DHT22;3995;50.856;4.404;2023-02-08T16:29:29;10.70;28.70
7900;DHT22;3995;50.856;4.404;2023-02-08T16:31:59;10.70;28.70
7900;DHT22;3995;50.856;4.404;2023-02-08T16:34:29;10.70;28.70
7900;DHT22;3995;50.856;4.404;2023-02-08T16:36:57;10.60;28.60
7900;DHT22;3995;50.856;4.404;2023-02-08T16:39:52;10.60;28.60
7900;DHT22;3995;50.856;4.404;2023-02-08T16:42:27;10.70;28.60
7900;DHT22;3995;50.856;4.404;2023-02-08T16:47:55;10.60;28.70
7900;DHT22;3995;50.856;4.404;2023-02-08T16:50:25;10.60;28.90
7900;DHT22;3995;50.856;4.404;2023-02-08T16:52:57;10.60;28.90
7900;DHT22;3995;50.856;4.404;2023-02-08T16:55:26;10.60;29.00
7900;DHT22;3995;50.856;4.404;2023-02-08T16:57:56;10.60;29.10
7900;DHT22;3995;50.856;4.404;2023-02-08T17:00:25;10.60;29.20
7900;DHT22;3995;50.856;4.404;2023-02-08T17:02:54;10.50;29.20
7900;DHT22;3995;50.856;4.404;2023-02-08T17:05:23;10.50;29.30